createdAt,value
2018-01-13T00:01:50.097Z,20.88
2018-01-13T00:04:17.648Z,18.90
2018-01-13T00:06:45.255Z,15.38
2018-01-13T00:09:12.814Z,23.58
2018-01-13T00:11:40.354Z,19.08
2018-01-13T00:14:08.693Z,21.42
2018-01-13T00:16:36.248Z,28.05
2018-01-13T00:19:03.815Z,22.37
2018-01-13T00:21:31.356Z,20.62
2018-01-13T00:23:58.895Z,27.30
2018-01-13T00:26:26.458Z,19.70
2018-01-13T00:28:53.999Z,17.65
2018-01-13T00:31:22.308Z,24.12
2018-01-13T00:33:49.889Z,21.90
2018-01-13T00:36:17.459Z,17.98
2018-01-13T00:38:45.008Z,15.98
2018-01-13T00:41:12.581Z,26.30
2018-01-13T00:43:40.141Z,25.27
2018-01-13T00:46:07.706Z,18.92
2018-01-13T00:48:35.256Z,16.02
2018-01-13T00:51:02.817Z,12.23
2018-01-13T00:53:30.412Z,12.25
2018-01-13T00:55:58.729Z,15.95
2018-01-13T00:58:26.283Z,14.63
2018-01-13T01:00:53.857Z,14.98
2018-01-13T01:03:21.396Z,12.00
2018-01-13T01:05:48.961Z,15.07
2018-01-13T01:08:16.545Z,14.75
2018-01-13T01:10:44.102Z,14.38
2018-01-13T01:13:11.663Z,12.70
2018-01-13T01:15:39.237Z,18.60
2018-01-13T01:18:06.789Z,16.05
2018-01-13T01:20:34.351Z,12.85
2018-01-13T01:23:01.915Z,12.95
2018-01-13T01:25:29.532Z,12.13
2018-01-13T01:27:57.082Z,11.80
2018-01-13T01:30:24.652Z,12.88
2018-01-13T01:32:52.228Z,10.50
2018-01-13T01:35:19.791Z,13.65
2018-01-13T01:37:47.359Z,18.37
2018-01-13T01:40:14.953Z,16.27
2018-01-13T01:42:43.294Z,17.95
2018-01-13T01:45:12.365Z,13.32
2018-01-13T01:47:39.937Z,17.37
2018-01-13T01:50:07.488Z,19.87
2018-01-13T01:52:35.051Z,15.88
2018-01-13T01:55:02.595Z,12.15
2018-01-13T01:57:30.136Z,10.85
2018-01-13T01:59:58.498Z,11.77
2018-01-13T02:02:26.839Z,12.40
2018-01-13T02:04:54.407Z,13.82
2018-01-13T02:07:21.988Z,16.75
2018-01-13T02:09:49.555Z,15.23
2018-01-13T02:12:17.885Z,18.58
2018-01-13T02:14:45.445Z,15.50
2018-01-13T02:17:13.002Z,15.15
2018-01-13T02:19:40.559Z,14.48
2018-01-13T02:22:08.128Z,13.85
2018-01-13T02:24:35.713Z,16.45
2018-01-13T02:27:03.261Z,14.90
2018-01-13T02:29:30.831Z,13.77
2018-01-13T02:31:58.414Z,13.98
2018-01-13T02:34:26.728Z,14.38
2018-01-13T02:36:54.301Z,15.18
2018-01-13T02:39:21.867Z,12.40
2018-01-13T02:41:49.417Z,19.35
2018-01-13T02:44:16.999Z,13.13
2018-01-13T02:46:44.563Z,13.70
2018-01-13T02:49:12.155Z,13.52
2018-01-13T02:51:40.491Z,15.90
2018-01-13T02:54:08.067Z,14.73
2018-01-13T02:56:35.635Z,16.27
2018-01-13T02:59:03.988Z,14.27
2018-01-13T03:01:31.545Z,11.52
2018-01-13T03:03:59.121Z,16.95
2018-01-13T03:06:26.673Z,14.00
2018-01-13T03:08:54.267Z,15.30
2018-01-13T03:11:22.577Z,15.07
2018-01-13T03:13:50.115Z,13.55
2018-01-13T03:16:17.700Z,16.33
2018-01-13T03:18:45.239Z,17.20
2018-01-13T03:21:12.823Z,13.05
2018-01-13T03:23:40.386Z,13.73
2018-01-13T03:26:07.954Z,29.52
2018-01-13T03:28:35.540Z,18.08
2018-01-13T03:31:03.106Z,13.00
2018-01-13T03:33:30.680Z,15.00
2018-01-13T03:35:59.126Z,14.10
2018-01-13T03:38:26.676Z,13.75
2018-01-13T03:40:54.249Z,13.25
2018-01-13T03:43:21.798Z,14.70
2018-01-13T03:45:49.387Z,13.48
2018-01-13T03:48:16.932Z,18.00
2018-01-13T03:50:44.481Z,12.18
2018-01-13T03:53:12.038Z,13.95
2018-01-13T03:55:39.597Z,16.60
2018-01-13T03:58:07.168Z,14.05
2018-01-13T04:00:34.740Z,16.10
2018-01-13T04:03:02.284Z,20.50
2018-01-13T04:05:29.850Z,15.30
2018-01-13T04:07:57.419Z,29.87
2018-01-13T04:10:24.968Z,13.48
2018-01-13T04:12:52.545Z,15.52
2018-01-13T04:15:20.891Z,16.45
2018-01-13T04:17:48.451Z,16.70
2018-01-13T04:20:16.015Z,19.40
2018-01-13T04:22:43.587Z,14.50
2018-01-13T04:25:11.161Z,15.20
2018-01-13T04:27:39.484Z,19.25
2018-01-13T04:30:07.026Z,15.75
2018-01-13T04:32:34.596Z,20.02
2018-01-13T04:35:02.136Z,17.73
2018-01-13T04:37:30.472Z,21.10
2018-01-13T04:39:58.012Z,18.02
2018-01-13T04:42:25.575Z,15.85
2018-01-13T04:44:53.169Z,17.23
2018-01-13T04:47:20.725Z,17.62
2018-01-13T04:49:49.060Z,15.60
2018-01-13T04:52:16.599Z,20.02
2018-01-13T04:54:44.138Z,22.60
2018-01-13T04:57:12.475Z,23.25
2018-01-13T04:59:40.047Z,14.00
2018-01-13T05:02:07.611Z,15.95
2018-01-13T05:04:35.147Z,18.05
2018-01-13T05:07:02.691Z,21.37
2018-01-13T05:09:30.282Z,18.05
2018-01-13T05:11:57.838Z,14.85
2018-01-13T05:14:25.407Z,18.98
2018-01-13T05:16:52.980Z,17.15
2018-01-13T05:19:22.233Z,20.17
2018-01-13T05:21:49.798Z,17.50
2018-01-13T05:24:17.357Z,16.77
2018-01-13T05:26:44.914Z,17.58
2018-01-13T05:29:12.466Z,15.55
2018-01-13T05:31:40.032Z,22.13
2018-01-13T05:34:07.586Z,18.70
2018-01-13T05:36:35.182Z,12.40
2018-01-13T05:39:02.737Z,14.98
2018-01-13T05:41:30.293Z,15.60
2018-01-13T05:43:57.865Z,20.00
2018-01-13T05:46:25.441Z,16.62
2018-01-13T05:48:53.802Z,14.85
2018-01-13T05:51:21.412Z,15.32
2018-01-13T05:53:49.725Z,12.65
2018-01-13T05:56:17.315Z,13.02
2018-01-13T05:58:45.640Z,12.90
2018-01-13T06:01:13.207Z,13.90
2018-01-13T06:03:40.799Z,11.05
2018-01-13T06:06:08.356Z,11.38
2018-01-13T06:08:35.900Z,10.75
2018-01-13T06:11:03.458Z,14.45
2018-01-13T06:13:31.031Z,11.15
2018-01-13T06:15:58.618Z,16.48
2018-01-13T06:18:26.951Z,13.43
2018-01-13T06:20:54.562Z,17.33
2018-01-13T06:23:22.890Z,14.65
2018-01-13T06:25:50.430Z,15.85
2018-01-13T06:28:18.152Z,14.93
2018-01-13T06:30:46.480Z,19.77
2018-01-13T06:33:14.015Z,17.05
2018-01-13T06:35:43.106Z,13.05
2018-01-13T06:38:10.644Z,12.35
2018-01-13T06:40:38.968Z,21.08
2018-01-13T06:43:06.533Z,16.65
2018-01-13T06:45:34.129Z,14.52
2018-01-13T06:48:01.674Z,17.52
2018-01-13T06:50:29.240Z,19.42
2018-01-13T06:52:56.801Z,20.62
2018-01-13T06:55:24.381Z,21.05
2018-01-13T06:57:52.701Z,20.58
2018-01-13T07:00:20.247Z,16.15
2018-01-13T07:02:47.808Z,16.40
2018-01-13T07:05:15.407Z,26.15
2018-01-13T07:07:43.582Z,17.73
2018-01-13T07:10:11.119Z,16.90
2018-01-13T07:12:38.772Z,17.40
2018-01-13T07:15:06.352Z,20.65
2018-01-13T07:17:33.910Z,17.23
2018-01-13T07:20:01.479Z,19.33
2018-01-13T07:22:29.138Z,23.65
2018-01-13T07:24:56.720Z,34.58
2018-01-13T07:27:24.290Z,21.52
2018-01-13T07:29:52.618Z,25.12
2018-01-13T07:32:20.180Z,32.78
2018-01-13T07:34:47.767Z,17.73
2018-01-13T07:37:15.627Z,21.33
2018-01-13T07:39:43.214Z,28.12
2018-01-13T07:42:11.547Z,26.83
2018-01-13T07:44:39.165Z,18.98
2018-01-13T07:47:07.545Z,21.05
2018-01-13T07:49:35.105Z,26.62
2018-01-13T07:52:02.690Z,21.27
2018-01-13T07:54:30.259Z,19.73
2018-01-13T07:56:57.823Z,25.27
2018-01-13T07:59:25.405Z,24.00
2018-01-13T08:01:52.956Z,27.05
2018-01-13T08:04:20.533Z,23.83
2018-01-13T08:06:48.236Z,30.23
2018-01-13T08:09:15.813Z,29.85
2018-01-13T08:11:43.375Z,33.15
2018-01-13T08:14:10.915Z,25.90
2018-01-13T08:16:38.476Z,30.50
2018-01-13T08:19:06.378Z,31.37
2018-01-13T08:21:33.943Z,23.85
2018-01-13T08:24:01.520Z,28.35
2018-01-13T08:26:29.064Z,27.77
2018-01-13T08:28:56.624Z,22.60
2018-01-13T08:31:24.215Z,21.92
2018-01-13T08:33:52.563Z,25.37
2018-01-13T08:36:20.122Z,19.65
2018-01-13T08:38:47.702Z,17.85
2018-01-13T08:41:15.247Z,21.87
2018-01-13T08:43:42.796Z,17.73
2018-01-13T08:46:10.378Z,18.12
2018-01-13T08:48:37.930Z,16.33
2018-01-13T08:51:05.497Z,18.08
2018-01-13T08:53:33.077Z,19.62
2018-01-13T08:56:01.389Z,14.23
2018-01-13T08:58:28.952Z,16.92
2018-01-13T09:00:56.547Z,20.27
2018-01-13T09:03:24.115Z,21.00
2018-01-13T09:05:51.673Z,13.55
2018-01-13T09:08:19.271Z,15.98
2018-01-13T09:10:46.825Z,19.12
2018-01-13T09:13:16.846Z,14.20
2018-01-13T09:15:44.454Z,17.40
2018-01-13T09:18:12.028Z,17.85
2018-01-13T09:20:39.617Z,17.17
2018-01-13T09:23:08.334Z,16.58
2018-01-13T09:25:39.101Z,16.55
2018-01-13T09:28:07.331Z,17.40
2018-01-13T09:30:34.885Z,17.50
2018-01-13T09:33:02.447Z,15.02
2018-01-13T09:35:30.029Z,16.12
2018-01-13T09:37:57.628Z,19.77
2018-01-13T09:40:25.210Z,17.48
2018-01-13T09:42:53.533Z,16.62
2018-01-13T09:45:21.130Z,14.50
2018-01-13T09:47:48.682Z,11.77
2018-01-13T09:50:16.228Z,11.25
2018-01-13T09:52:43.814Z,18.70
2018-01-13T09:55:12.146Z,12.35
2018-01-13T09:57:39.710Z,12.25
2018-01-13T10:00:07.285Z,17.00
2018-01-13T10:02:34.837Z,11.63
2018-01-13T10:05:02.400Z,12.77
2018-01-13T10:07:29.972Z,12.32
2018-01-13T10:09:57.534Z,10.15
2018-01-13T10:12:25.155Z,15.20
2018-01-13T10:14:52.728Z,18.60
2018-01-13T10:17:20.275Z,9.50
2018-01-13T10:19:48.598Z,10.75
2018-01-13T10:22:16.175Z,9.30
2018-01-13T10:24:44.502Z,9.52
2018-01-13T10:27:12.046Z,10.90
2018-01-13T10:29:39.616Z,8.10
2018-01-13T10:32:07.151Z,10.68
2018-01-13T10:34:34.695Z,11.12
2018-01-13T10:37:03.041Z,10.07
2018-01-13T10:39:30.644Z,10.25
2018-01-13T10:41:58.954Z,10.73
2018-01-13T10:44:26.606Z,11.68
2018-01-13T10:46:54.170Z,9.65
2018-01-13T10:49:21.702Z,9.25
2018-01-13T10:51:50.168Z,10.05
2018-01-13T10:54:18.524Z,8.57
2018-01-13T10:56:46.075Z,10.73
2018-01-13T10:59:17.754Z,11.32
2018-01-13T11:04:48.429Z,11.98
2018-01-13T11:10:17.668Z,13.38
2018-01-13T11:12:45.217Z,12.73
2018-01-13T11:15:12.777Z,11.80
2018-01-13T11:17:40.349Z,9.10
2018-01-13T11:20:08.678Z,11.63
2018-01-13T11:22:36.232Z,16.85
2018-01-13T11:25:03.796Z,14.23
2018-01-13T11:27:31.352Z,10.40
2018-01-13T11:29:58.895Z,11.20
2018-01-13T11:32:26.465Z,9.90
2018-01-13T11:34:54.029Z,10.38
2018-01-13T11:37:21.597Z,12.88
2018-01-13T11:39:49.172Z,13.38
2018-01-13T11:42:16.738Z,11.95
2018-01-13T11:44:44.275Z,12.68
2018-01-13T11:47:11.859Z,13.50
2018-01-13T11:49:39.400Z,13.93
2018-01-13T11:52:06.992Z,13.82
2018-01-13T11:54:34.553Z,12.52
2018-01-13T11:57:02.091Z,16.67
2018-01-13T11:59:29.652Z,16.83
2018-01-13T12:01:57.187Z,16.60
2018-01-13T12:04:24.883Z,16.35
2018-01-13T12:06:52.830Z,13.77
2018-01-13T12:09:20.419Z,11.15
2018-01-13T12:11:47.986Z,17.70
2018-01-13T12:14:15.546Z,15.82
2018-01-13T12:16:43.132Z,13.60
2018-01-13T12:19:11.435Z,11.85
2018-01-13T12:21:38.989Z,15.20
2018-01-13T12:24:06.563Z,16.48
2018-01-13T12:26:34.108Z,21.87
2018-01-13T12:29:01.699Z,11.70
2018-01-13T12:31:29.257Z,18.90
2018-01-13T12:33:56.810Z,15.63
2018-01-13T12:36:24.371Z,15.82
2018-01-13T12:38:51.925Z,15.38
2018-01-13T12:41:19.478Z,17.73
2018-01-13T12:43:47.038Z,15.10
2018-01-13T12:46:14.575Z,15.73
2018-01-13T12:48:42.248Z,16.58
2018-01-13T12:51:09.822Z,13.60
2018-01-13T12:53:37.381Z,19.27
2018-01-13T12:56:04.947Z,13.88
2018-01-13T12:58:32.515Z,26.77
2018-01-13T13:01:00.098Z,14.38
2018-01-13T13:03:27.663Z,11.85
2018-01-13T13:05:55.250Z,12.48
2018-01-13T13:08:22.809Z,18.77
2018-01-13T13:10:50.365Z,12.50
2018-01-13T13:13:18.000Z,11.40
2018-01-13T13:15:45.518Z,14.70
2018-01-13T13:18:13.077Z,16.48
2018-01-13T13:20:40.635Z,17.17
2018-01-13T13:23:08.196Z,17.60
2018-01-13T13:25:35.768Z,16.73
2018-01-13T13:28:03.310Z,16.67
2018-01-13T13:30:30.853Z,13.15
2018-01-13T13:32:58.450Z,15.95
2018-01-13T13:35:25.989Z,13.70
2018-01-13T13:37:53.531Z,13.88
2018-01-13T13:40:21.110Z,14.38
2018-01-13T13:42:48.770Z,13.68
2018-01-13T13:45:16.320Z,15.85
2018-01-13T13:47:43.909Z,15.10
2018-01-13T13:50:11.444Z,16.80
2018-01-13T13:52:39.012Z,15.30
2018-01-13T13:55:06.584Z,17.80
2018-01-13T13:57:34.141Z,12.40
2018-01-13T14:00:01.697Z,16.80
2018-01-13T14:02:29.266Z,14.57
2018-01-13T14:04:56.831Z,19.40
2018-01-13T14:07:24.395Z,13.00
2018-01-13T14:09:51.953Z,15.15
2018-01-13T14:12:19.519Z,14.73
2018-01-13T14:14:47.074Z,17.67
2018-01-13T14:17:14.611Z,13.93
2018-01-13T14:19:42.167Z,20.00
2018-01-13T14:22:09.741Z,21.58
2018-01-13T14:24:38.819Z,17.40
2018-01-13T14:27:06.383Z,16.60
2018-01-13T14:29:33.958Z,15.98
2018-01-13T14:32:01.514Z,25.55
2018-01-13T14:34:29.075Z,18.87
2018-01-13T14:36:56.628Z,19.37
2018-01-13T14:39:24.201Z,20.42
2018-01-13T14:41:51.777Z,17.73
2018-01-13T14:44:19.332Z,19.73
2018-01-13T14:46:46.917Z,19.30
2018-01-13T14:49:15.232Z,18.23
2018-01-13T14:51:42.778Z,23.85
2018-01-13T14:54:10.372Z,18.58
2018-01-13T14:56:37.938Z,22.23
2018-01-13T14:59:05.493Z,18.83
2018-01-13T15:01:33.077Z,19.75
2018-01-13T15:04:00.629Z,19.05
2018-01-13T15:06:28.189Z,22.30
2018-01-13T15:08:55.751Z,19.90
2018-01-13T15:11:23.295Z,24.12
2018-01-13T15:13:50.888Z,22.35
2018-01-13T15:16:19.209Z,21.42
2018-01-13T15:18:46.968Z,25.98
2018-01-13T15:21:14.561Z,28.02
2018-01-13T15:23:42.121Z,27.87
2018-01-13T15:26:09.722Z,24.02
2018-01-13T15:28:37.263Z,29.02
2018-01-13T15:31:05.632Z,22.27
2018-01-13T15:33:33.972Z,28.50
2018-01-13T15:36:01.534Z,27.45
2018-01-13T15:38:29.144Z,19.58
2018-01-13T15:40:57.467Z,24.67
2018-01-13T15:43:25.021Z,29.10
2018-01-13T15:45:52.589Z,27.42
2018-01-13T15:48:20.138Z,27.27
2018-01-13T15:50:47.731Z,54.13
2018-01-13T15:53:15.305Z,37.78
2018-01-13T15:55:42.861Z,28.50
2018-01-13T15:58:10.436Z,22.87
2018-01-13T16:00:38.771Z,29.25
2018-01-13T16:03:06.329Z,22.40
2018-01-13T16:05:33.902Z,25.17
2018-01-13T16:08:01.471Z,27.25
2018-01-13T16:10:29.064Z,25.37
2018-01-13T16:12:57.376Z,25.37
2018-01-13T16:15:24.915Z,33.22
2018-01-13T16:17:52.855Z,36.80
2018-01-13T16:20:21.182Z,28.95
2018-01-13T16:22:48.742Z,30.37
2018-01-13T16:25:18.985Z,28.98
2018-01-13T16:27:47.444Z,29.58
2018-01-13T16:30:15.023Z,29.83
2018-01-13T16:32:42.585Z,31.02
2018-01-13T16:35:10.360Z,35.35
2018-01-13T16:37:37.919Z,32.63
2018-01-13T16:40:05.482Z,30.25
2018-01-13T16:42:33.067Z,41.03
2018-01-13T16:45:01.385Z,37.90
2018-01-13T16:47:28.938Z,36.15
2018-01-13T16:49:56.505Z,40.92
2018-01-13T16:52:24.049Z,37.63
2018-01-13T16:54:51.643Z,38.00
2018-01-13T16:57:19.196Z,33.40
2018-01-13T16:59:46.767Z,32.80
2018-01-13T17:02:14.349Z,31.85
2018-01-13T17:04:42.672Z,37.30
2018-01-13T17:07:10.232Z,34.05
2018-01-13T17:09:37.827Z,36.90
2018-01-13T17:12:05.371Z,43.08
2018-01-13T17:14:32.959Z,43.05
2018-01-13T17:17:00.531Z,50.10
2018-01-13T17:19:28.868Z,64.22
2018-01-13T17:21:56.440Z,93.43
2018-01-13T17:24:23.996Z,142.73
2018-01-13T17:26:51.596Z,127.22
2018-01-13T17:29:19.937Z,83.10
2018-01-13T17:31:47.484Z,53.47
2018-01-13T17:34:15.033Z,62.55
2018-01-13T17:36:42.590Z,66.43
2018-01-13T17:39:10.132Z,45.92
2018-01-13T17:41:37.675Z,35.35
2018-01-13T17:44:05.998Z,37.05
2018-01-13T17:46:33.543Z,36.17
2018-01-13T17:49:01.079Z,33.33
2018-01-13T17:51:28.671Z,34.08
2018-01-13T17:53:56.218Z,36.85
2018-01-13T17:56:23.777Z,37.13
2018-01-13T17:58:51.339Z,35.58
2018-01-13T18:01:18.879Z,41.20
2018-01-13T18:03:46.443Z,43.87
2018-01-13T18:06:14.026Z,35.55
2018-01-13T18:08:41.583Z,30.98
2018-01-13T18:11:09.140Z,36.72
2018-01-13T18:13:36.708Z,39.45
2018-01-13T18:16:04.246Z,33.88
2018-01-13T18:18:31.815Z,40.95
2018-01-13T18:20:59.397Z,40.50
2018-01-13T18:23:26.967Z,40.05
2018-01-13T18:25:54.517Z,43.03
2018-01-13T18:28:22.089Z,43.00
2018-01-13T18:30:49.660Z,44.55
2018-01-13T18:33:17.237Z,32.15
2018-01-13T18:35:45.572Z,37.75
2018-01-13T18:38:13.134Z,37.60
2018-01-13T18:40:40.713Z,39.63
2018-01-13T18:43:09.788Z,29.98
2018-01-13T18:45:37.359Z,35.42
2018-01-13T18:48:04.921Z,36.90
2018-01-13T18:50:32.462Z,37.08
2018-01-13T18:53:00.042Z,35.40
2018-01-13T18:55:27.619Z,38.35
2018-01-13T18:57:57.400Z,33.00
2018-01-13T19:00:25.892Z,34.22
2018-01-13T19:02:53.444Z,35.40
2018-01-13T19:05:20.999Z,84.82
2018-01-13T19:07:48.591Z,33.85
2018-01-13T19:10:16.911Z,35.95
2018-01-13T19:12:44.504Z,28.40
2018-01-13T19:15:12.068Z,34.55
2018-01-13T19:17:39.625Z,36.05
2018-01-13T19:20:07.201Z,38.75
2018-01-13T19:22:34.754Z,33.00
2018-01-13T19:25:02.324Z,35.17
2018-01-13T19:27:30.679Z,38.20
2018-01-13T19:29:59.726Z,32.60
2018-01-13T19:32:27.309Z,34.25
2018-01-13T19:34:54.879Z,31.33
2018-01-13T19:37:23.483Z,39.53
2018-01-13T19:39:51.098Z,34.97
2018-01-13T19:42:18.657Z,44.78
2018-01-13T19:44:46.229Z,34.20
2018-01-13T19:47:13.771Z,30.73
2018-01-13T19:49:41.326Z,28.58
2018-01-13T19:52:08.905Z,29.85
2018-01-13T19:54:36.486Z,36.90
2018-01-13T19:57:04.049Z,37.80
2018-01-13T19:59:31.633Z,41.80
2018-01-13T20:01:59.184Z,31.80
2018-01-13T20:04:26.750Z,35.60
2018-01-13T20:06:54.329Z,32.40
2018-01-13T20:09:22.666Z,40.05
2018-01-13T20:11:50.226Z,32.03
2018-01-13T20:14:17.786Z,33.20
2018-01-13T20:16:45.351Z,34.70
2018-01-13T20:19:12.895Z,38.20
2018-01-13T20:21:40.481Z,34.50
2018-01-13T20:24:08.018Z,36.67
2018-01-13T20:26:35.578Z,29.08
2018-01-13T20:29:03.148Z,37.63
2018-01-13T20:31:30.719Z,40.72
2018-01-13T20:33:58.290Z,38.45
2018-01-13T20:36:26.600Z,32.80
2018-01-13T20:38:54.151Z,42.30
2018-01-13T20:41:21.752Z,30.20
2018-01-13T20:43:49.329Z,39.33
2018-01-13T20:46:16.903Z,34.78
2018-01-13T20:48:45.225Z,37.55
2018-01-13T20:51:12.825Z,56.35
2018-01-13T20:53:40.399Z,37.65
2018-01-13T20:56:08.740Z,34.40
2018-01-13T20:58:36.307Z,40.33
2018-01-13T21:01:03.865Z,40.53
2018-01-13T21:03:31.411Z,41.90
2018-01-13T21:05:58.971Z,46.65
2018-01-13T21:08:26.515Z,32.45
2018-01-13T21:10:54.092Z,36.65
2018-01-13T21:13:21.644Z,38.80
2018-01-13T21:15:49.187Z,43.45
2018-01-13T21:18:16.774Z,33.28
2018-01-13T21:20:44.329Z,36.35
2018-01-13T21:23:11.885Z,36.88
2018-01-13T21:25:39.439Z,36.78
2018-01-13T21:28:06.992Z,40.15
2018-01-13T21:30:34.578Z,36.97
2018-01-13T21:33:02.124Z,37.72
2018-01-13T21:35:29.672Z,38.42
2018-01-13T21:37:57.258Z,35.55
2018-01-13T21:40:24.818Z,29.55
2018-01-13T21:42:52.355Z,35.83
2018-01-13T21:45:19.906Z,40.78
2018-01-13T21:47:47.475Z,35.40
2018-01-13T21:50:15.071Z,37.15
2018-01-13T21:52:42.647Z,45.78
2018-01-13T21:55:10.969Z,30.65
2018-01-13T21:57:38.563Z,33.92
2018-01-13T22:00:06.121Z,37.78
2018-01-13T22:02:33.681Z,36.97
2018-01-13T22:05:01.287Z,39.78
2018-01-13T22:07:28.857Z,42.92
2018-01-13T22:09:56.408Z,38.25
2018-01-13T22:12:24.092Z,34.42
2018-01-13T22:14:51.635Z,42.88
2018-01-13T22:17:19.191Z,31.92
2018-01-13T22:19:46.776Z,37.88
2018-01-13T22:22:14.334Z,33.28
2018-01-13T22:24:41.907Z,42.47
2018-01-13T22:27:09.503Z,38.00
2018-01-13T22:29:37.825Z,36.20
2018-01-13T22:32:05.396Z,35.28
2018-01-13T22:34:32.967Z,35.22
2018-01-13T22:37:00.521Z,40.78
2018-01-13T22:39:28.081Z,38.58
2018-01-13T22:41:55.661Z,37.58
2018-01-13T22:44:23.213Z,44.30
2018-01-13T22:46:50.765Z,37.92
2018-01-13T22:49:18.340Z,34.33
2018-01-13T22:51:45.897Z,40.25
2018-01-13T22:54:13.482Z,35.65
2018-01-13T22:56:41.809Z,39.75
2018-01-13T22:59:09.369Z,31.10
2018-01-13T23:01:36.947Z,40.75
2018-01-13T23:04:04.527Z,36.13
2018-01-13T23:06:32.085Z,33.92
2018-01-13T23:08:59.665Z,36.10
2018-01-13T23:11:27.974Z,39.90
2018-01-13T23:13:55.547Z,33.13
2018-01-13T23:16:23.122Z,40.22
2018-01-13T23:18:50.675Z,41.33
2018-01-13T23:21:18.242Z,35.70
2018-01-13T23:23:45.779Z,45.15
2018-01-13T23:26:15.082Z,38.85
2018-01-13T23:28:42.647Z,34.33
2018-01-13T23:31:10.219Z,34.92
2018-01-13T23:33:37.777Z,34.97
2018-01-13T23:36:05.334Z,39.15
2018-01-13T23:38:32.902Z,46.13
2018-01-13T23:41:00.443Z,31.45
2018-01-13T23:43:28.016Z,34.53
2018-01-13T23:45:55.569Z,34.45
2018-01-13T23:48:23.121Z,34.42
2018-01-13T23:50:50.713Z,52.15
2018-01-13T23:53:19.048Z,37.50
2018-01-13T23:55:46.594Z,30.80
2018-01-13T23:58:14.182Z,32.95
